createdAt,value
2022-11-20T00:01:16.065Z,15.20
2022-11-20T00:03:42.890Z,7.50
2022-11-20T00:06:12.910Z,13.70
2022-11-20T00:08:40.102Z,9.80
2022-11-20T00:11:14.258Z,11.60
2022-11-20T00:13:43.694Z,11.70
2022-11-20T00:16:12.510Z,12.10
2022-11-20T00:18:39.139Z,12.30
2022-11-20T00:21:27.681Z,13.30
2022-11-20T00:23:56.695Z,15.10
2022-11-20T00:26:25.690Z,11.40
2022-11-20T00:28:57.912Z,13.30
2022-11-20T00:31:25.641Z,12.60
2022-11-20T00:33:52.580Z,12.00
2022-11-20T00:36:24.703Z,12.20
2022-11-20T00:38:52.897Z,11.50
2022-11-20T00:41:19.863Z,10.70
2022-11-20T00:43:46.512Z,9.90
2022-11-20T00:46:15.337Z,7.40
2022-11-20T00:48:43.546Z,9.20
2022-11-20T00:51:12.697Z,8.60
2022-11-20T00:53:39.264Z,11.90
2022-11-20T00:56:10.202Z,9.90
2022-11-20T00:58:38.780Z,12.70
2022-11-20T01:01:14.631Z,13.40
2022-11-20T01:03:43.705Z,11.40
2022-11-20T01:06:14.736Z,8.50
2022-11-20T01:08:42.885Z,10.00
2022-11-20T01:11:15.197Z,11.90
2022-11-20T01:13:42.964Z,8.50
2022-11-20T01:16:18.394Z,11.20
2022-11-20T01:18:47.947Z,11.30
2022-11-20T01:21:20.685Z,7.90
2022-11-20T01:23:49.128Z,9.10
2022-11-20T01:26:18.723Z,6.60
2022-11-20T01:28:45.872Z,6.00
2022-11-20T01:31:20.147Z,12.00
2022-11-20T01:33:49.630Z,13.60
2022-11-20T01:36:18.061Z,12.80
2022-11-20T01:38:44.861Z,13.30
2022-11-20T01:41:32.995Z,12.60
2022-11-20T01:44:00.627Z,11.50
2022-11-20T01:46:27.515Z,9.30
2022-11-20T01:49:06.509Z,11.60
2022-11-20T01:51:44.767Z,8.50
2022-11-20T01:54:22.141Z,9.80
2022-11-20T01:56:52.350Z,7.60
2022-11-20T01:59:21.068Z,9.30
2022-11-20T02:01:48.072Z,9.60
2022-11-20T02:04:15.885Z,8.90
2022-11-20T02:06:47.685Z,9.50
2022-11-20T02:09:15.306Z,11.40
2022-11-20T02:11:42.139Z,7.90
2022-11-20T02:14:09.369Z,12.90
2022-11-20T02:16:44.524Z,12.40
2022-11-20T02:19:20.419Z,13.50
2022-11-20T02:21:53.070Z,13.80
2022-11-20T02:24:21.875Z,11.90
2022-11-20T02:26:51.369Z,11.20
2022-11-20T02:29:26.320Z,11.90
2022-11-20T02:31:55.504Z,11.20
2022-11-20T02:34:21.942Z,8.10
2022-11-20T02:36:50.080Z,12.80
2022-11-20T02:39:20.168Z,13.30
2022-11-20T02:41:46.921Z,9.70
2022-11-20T02:44:13.548Z,11.10
2022-11-20T02:46:40.168Z,10.10
2022-11-20T02:49:06.858Z,8.70
2022-11-20T02:51:33.595Z,10.30
2022-11-20T02:54:00.117Z,7.40
2022-11-20T02:56:27.084Z,10.30
2022-11-20T02:58:53.695Z,12.20
2022-11-20T03:01:20.322Z,11.90
2022-11-20T03:03:49.009Z,13.30
2022-11-20T03:06:17.376Z,11.80
2022-11-20T03:08:44.147Z,12.30
2022-11-20T03:11:10.938Z,10.10
2022-11-20T03:13:37.627Z,14.20
2022-11-20T03:16:12.566Z,11.70
2022-11-20T03:18:40.794Z,11.00
2022-11-20T03:21:08.651Z,8.70
2022-11-20T03:23:36.023Z,14.40
2022-11-20T03:26:14.095Z,10.70
2022-11-20T03:28:41.972Z,10.90
2022-11-20T03:31:14.178Z,10.00
2022-11-20T03:33:42.359Z,12.20
2022-11-20T03:36:11.746Z,14.10
2022-11-20T03:38:38.906Z,16.20
2022-11-20T03:41:08.260Z,13.60
2022-11-20T03:43:35.302Z,15.00
2022-11-20T03:46:02.113Z,13.60
2022-11-20T03:48:28.913Z,11.00
2022-11-20T03:51:10.480Z,14.30
2022-11-20T03:53:37.210Z,14.00
2022-11-20T03:56:04.682Z,14.70
2022-11-20T03:58:31.546Z,12.90
2022-11-20T04:00:58.060Z,6.30
2022-11-20T04:03:24.559Z,14.40
2022-11-20T04:05:51.153Z,16.10
2022-11-20T04:08:17.867Z,12.70
2022-11-20T04:10:44.511Z,15.70
2022-11-20T04:13:11.000Z,15.20
2022-11-20T04:15:38.623Z,14.60
2022-11-20T04:18:05.468Z,12.20
2022-11-20T04:20:32.318Z,12.70
2022-11-20T04:22:59.021Z,14.50
2022-11-20T04:25:25.594Z,12.30
2022-11-20T04:27:52.092Z,13.20
2022-11-20T04:30:19.060Z,10.00
2022-11-20T04:32:45.443Z,11.80
2022-11-20T04:35:11.948Z,11.60
2022-11-20T04:37:38.646Z,13.40
2022-11-20T04:40:05.946Z,17.20
2022-11-20T04:42:32.423Z,18.60
2022-11-20T04:44:59.251Z,15.90
2022-11-20T04:47:25.783Z,15.10
2022-11-20T04:49:52.656Z,16.10
2022-11-20T04:52:19.912Z,14.40
2022-11-20T04:54:46.723Z,11.20
2022-11-20T04:57:14.791Z,17.00
2022-11-20T04:59:41.595Z,14.20
2022-11-20T05:02:08.669Z,17.70
2022-11-20T05:04:35.201Z,17.10
2022-11-20T05:07:01.871Z,14.70
2022-11-20T05:09:28.678Z,16.60
2022-11-20T05:11:55.119Z,15.30
2022-11-20T05:14:21.706Z,16.90
2022-11-20T05:16:48.836Z,21.10
2022-11-20T05:19:15.244Z,16.20
2022-11-20T05:21:42.125Z,24.00
2022-11-20T05:24:08.974Z,21.80
2022-11-20T05:26:35.440Z,21.00
2022-11-20T05:29:02.026Z,16.90
2022-11-20T05:31:28.763Z,17.20
2022-11-20T05:33:57.293Z,17.10
2022-11-20T05:36:24.497Z,16.60
2022-11-20T05:38:51.934Z,16.80
2022-11-20T05:41:20.739Z,14.60
2022-11-20T05:43:48.997Z,16.30
2022-11-20T05:46:17.972Z,12.50
2022-11-20T05:48:45.991Z,11.90
2022-11-20T05:51:17.291Z,9.70
2022-11-20T05:53:48.295Z,12.90
2022-11-20T05:56:19.069Z,15.20
2022-11-20T05:58:47.281Z,17.70
2022-11-20T06:01:15.242Z,15.80
2022-11-20T06:03:44.213Z,14.50
2022-11-20T06:06:11.384Z,11.50
2022-11-20T06:08:37.816Z,14.80
2022-11-20T06:11:06.541Z,14.00
2022-11-20T06:13:34.576Z,13.60
2022-11-20T06:16:03.803Z,11.60
2022-11-20T06:18:31.353Z,11.40
2022-11-20T06:21:06.871Z,11.50
2022-11-20T06:23:34.814Z,8.90
2022-11-20T06:26:13.081Z,10.00
2022-11-20T06:28:40.155Z,15.30
2022-11-20T06:31:07.949Z,16.70
2022-11-20T06:33:34.606Z,16.30
2022-11-20T06:36:04.662Z,15.90
2022-11-20T06:38:33.971Z,16.60
2022-11-20T06:41:00.495Z,15.80
2022-11-20T06:43:29.421Z,19.00
2022-11-20T06:45:57.500Z,16.60
2022-11-20T06:48:26.112Z,16.20
2022-11-20T06:50:53.219Z,10.40
2022-11-20T06:53:20.076Z,11.70
2022-11-20T06:55:47.932Z,11.70
2022-11-20T06:58:16.101Z,8.60
2022-11-20T07:00:43.495Z,13.00
2022-11-20T07:03:11.625Z,13.30
2022-11-20T07:05:41.739Z,15.80
2022-11-20T07:08:08.584Z,18.30
2022-11-20T07:10:35.623Z,18.80
2022-11-20T07:13:02.343Z,19.40
2022-11-20T07:15:29.355Z,16.60
2022-11-20T07:17:58.818Z,16.80
2022-11-20T07:20:25.476Z,16.40
2022-11-20T07:22:56.468Z,16.30
2022-11-20T07:25:24.074Z,15.40
2022-11-20T07:27:50.608Z,18.00
2022-11-20T07:30:17.736Z,13.00
2022-11-20T07:32:50.920Z,16.50
2022-11-20T07:35:17.610Z,12.20
2022-11-20T07:37:46.042Z,15.40
2022-11-20T07:40:16.250Z,15.70
2022-11-20T07:42:53.444Z,16.20
2022-11-20T07:45:22.471Z,18.60
2022-11-20T07:47:49.916Z,21.80
2022-11-20T07:50:17.099Z,20.60
2022-11-20T07:52:44.075Z,17.70
2022-11-20T07:55:11.936Z,15.80
2022-11-20T07:57:38.955Z,10.30
2022-11-20T08:00:09.363Z,13.20
2022-11-20T08:02:42.174Z,12.20
2022-11-20T08:05:10.205Z,15.80
2022-11-20T08:07:38.402Z,14.40
2022-11-20T08:10:06.157Z,17.80
2022-11-20T08:12:51.224Z,17.10
2022-11-20T08:15:18.270Z,12.80
2022-11-20T08:18:01.968Z,18.40
2022-11-20T08:20:32.476Z,18.90
2022-11-20T08:23:04.267Z,18.30
2022-11-20T08:25:30.750Z,14.20
2022-11-20T08:28:11.590Z,16.10
2022-11-20T08:30:46.288Z,15.70
2022-11-20T08:33:13.156Z,17.90
2022-11-20T08:35:41.351Z,14.60
2022-11-20T08:38:09.135Z,17.90
2022-11-20T08:40:36.071Z,20.20
2022-11-20T08:43:02.564Z,18.90
2022-11-20T08:45:33.637Z,15.40
2022-11-20T08:48:03.000Z,14.50
2022-11-20T08:50:31.989Z,19.30
2022-11-20T08:53:04.275Z,17.20
2022-11-20T08:55:31.388Z,17.30
2022-11-20T08:58:00.211Z,15.10
2022-11-20T09:00:26.826Z,16.80
2022-11-20T09:02:53.511Z,15.40
2022-11-20T09:05:19.972Z,15.90
2022-11-20T09:07:46.560Z,14.80
2022-11-20T09:10:28.773Z,16.30
2022-11-20T09:12:56.084Z,13.80
2022-11-20T09:15:24.390Z,17.10
2022-11-20T09:18:02.890Z,16.30
2022-11-20T09:20:30.423Z,17.20
2022-11-20T09:22:57.774Z,16.90
2022-11-20T09:25:24.729Z,18.70
2022-11-20T09:27:58.997Z,16.80
2022-11-20T09:30:27.279Z,19.50
2022-11-20T09:32:54.164Z,17.60
2022-11-20T09:35:20.798Z,15.90
2022-11-20T09:37:47.416Z,12.00
2022-11-20T09:40:21.475Z,17.80
2022-11-20T09:43:15.860Z,17.40
2022-11-20T09:46:03.868Z,15.30
2022-11-20T09:49:01.374Z,14.20
2022-11-20T09:51:43.345Z,16.70
2022-11-20T09:54:21.634Z,17.20
2022-11-20T09:56:59.892Z,12.80
2022-11-20T09:59:36.749Z,18.30
2022-11-20T10:02:15.556Z,15.70
2022-11-20T10:04:49.378Z,12.50
2022-11-20T10:07:34.086Z,16.10
2022-11-20T10:10:01.227Z,16.60
2022-11-20T10:12:49.727Z,17.90
2022-11-20T10:15:36.960Z,16.00
2022-11-20T10:18:15.406Z,14.00
2022-11-20T10:20:45.366Z,14.50
2022-11-20T10:23:21.473Z,17.30
2022-11-20T10:26:03.143Z,18.20
2022-11-20T10:29:04.687Z,17.20
2022-11-20T10:31:37.751Z,16.30
2022-11-20T10:34:28.331Z,13.00
2022-11-20T10:37:16.156Z,16.20
2022-11-20T10:39:56.204Z,17.50
2022-11-20T10:42:48.761Z,13.90
2022-11-20T10:45:24.326Z,17.20
2022-11-20T10:48:07.257Z,16.10
2022-11-20T10:50:36.721Z,12.50
2022-11-20T10:53:39.180Z,13.80
2022-11-20T10:56:14.700Z,14.90
2022-11-20T10:58:41.382Z,15.90
2022-11-20T11:01:21.904Z,17.70
2022-11-20T11:03:51.902Z,16.90
2022-11-20T11:06:43.211Z,17.30
2022-11-20T11:09:16.907Z,14.20
2022-11-20T11:11:43.483Z,16.00
2022-11-20T11:14:13.234Z,14.50
2022-11-20T11:16:54.920Z,14.60
2022-11-20T11:19:22.672Z,14.50
2022-11-20T11:21:56.135Z,14.20
2022-11-20T11:24:44.696Z,14.20
2022-11-20T11:27:17.167Z,11.90
2022-11-20T11:29:45.714Z,13.80
2022-11-20T11:32:22.315Z,13.60
2022-11-20T11:35:20.719Z,15.60
2022-11-20T11:37:48.849Z,14.80
2022-11-20T11:40:25.518Z,15.30
2022-11-20T11:43:01.788Z,15.40
2022-11-20T11:45:29.074Z,14.40
2022-11-20T11:47:59.120Z,14.20
2022-11-20T11:50:31.510Z,14.00
2022-11-20T11:53:14.851Z,10.10
2022-11-20T11:56:14.047Z,12.90
2022-11-20T11:58:46.416Z,14.40
2022-11-20T12:01:34.116Z,13.40
2022-11-20T12:04:38.115Z,15.50
2022-11-20T12:07:44.285Z,13.00
2022-11-20T12:10:05.120Z,16.50
2022-11-20T12:12:39.522Z,13.40
2022-11-20T12:15:12.129Z,15.10
2022-11-20T12:17:38.760Z,12.50
2022-11-20T12:20:13.647Z,13.70
2022-11-20T12:22:59.925Z,12.40
2022-11-20T12:25:31.794Z,12.20
2022-11-20T12:28:32.475Z,12.70
2022-11-20T12:31:02.341Z,13.70
2022-11-20T12:33:54.872Z,12.90
2022-11-20T12:36:41.166Z,14.50
2022-11-20T12:39:36.006Z,10.50
2022-11-20T12:42:26.578Z,11.20
2022-11-20T12:45:14.929Z,13.60
2022-11-20T12:48:00.459Z,10.10
2022-11-20T12:51:15.163Z,11.00
2022-11-20T12:54:11.735Z,12.40
2022-11-20T12:57:16.330Z,9.90
2022-11-20T13:00:11.410Z,14.40
2022-11-20T13:03:13.853Z,14.20
2022-11-20T13:06:05.539Z,13.20
2022-11-20T13:08:38.925Z,12.30
2022-11-20T13:11:21.273Z,16.00
2022-11-20T13:14:31.314Z,10.90
2022-11-20T13:16:59.858Z,13.90
2022-11-20T13:19:30.170Z,12.70
2022-11-20T13:21:56.698Z,13.30
2022-11-20T13:24:27.299Z,16.70
2022-11-20T13:27:24.276Z,10.80
2022-11-20T13:30:17.702Z,12.10
2022-11-20T13:32:53.827Z,12.30
2022-11-20T13:35:35.570Z,12.20
2022-11-20T13:38:11.847Z,12.90
2022-11-20T13:41:20.359Z,12.80
2022-11-20T13:43:48.534Z,11.40
2022-11-20T13:46:15.648Z,12.80
2022-11-20T13:48:47.337Z,8.90
2022-11-20T13:51:45.023Z,11.90
2022-11-20T13:54:44.340Z,12.60
2022-11-20T13:57:49.164Z,13.20
2022-11-20T14:00:19.595Z,11.10
2022-11-20T14:03:18.559Z,14.30
2022-11-20T14:06:06.702Z,15.00
2022-11-20T14:08:42.690Z,13.50
2022-11-20T14:11:18.614Z,14.30
2022-11-20T14:13:55.867Z,12.80
2022-11-20T14:16:24.098Z,14.40
2022-11-20T14:18:51.002Z,11.00
2022-11-20T14:21:30.012Z,10.90
2022-11-20T14:24:10.194Z,14.10
2022-11-20T14:26:41.657Z,14.90
2022-11-20T14:29:22.379Z,11.80
2022-11-20T14:31:54.331Z,12.00
2022-11-20T14:34:36.449Z,12.00
2022-11-20T14:37:06.422Z,14.50
2022-11-20T14:39:35.978Z,10.80
2022-11-20T14:42:04.099Z,14.50
2022-11-20T14:44:34.307Z,16.40
2022-11-20T14:47:03.346Z,11.10
2022-11-20T14:49:32.443Z,12.50
2022-11-20T14:52:20.678Z,16.50
2022-11-20T14:54:49.731Z,16.20
2022-11-20T14:57:27.257Z,16.50
2022-11-20T15:00:27.368Z,15.00
2022-11-20T15:02:54.333Z,12.10
2022-11-20T15:05:23.940Z,13.10
2022-11-20T15:08:05.761Z,15.60
2022-11-20T15:10:32.779Z,15.30
2022-11-20T15:13:13.209Z,15.90
2022-11-20T15:15:47.394Z,15.50
2022-11-20T15:18:17.052Z,16.50
2022-11-20T15:20:44.246Z,17.80
2022-11-20T15:23:18.283Z,16.20
2022-11-20T15:25:46.377Z,13.00
2022-11-20T15:28:18.327Z,17.10
2022-11-20T15:30:47.639Z,15.00
2022-11-20T15:33:15.439Z,15.30
2022-11-20T15:35:42.246Z,16.10
2022-11-20T15:38:09.134Z,14.00
2022-11-20T15:40:35.775Z,14.70
2022-11-20T15:43:03.701Z,14.20
2022-11-20T15:45:45.449Z,12.70
2022-11-20T15:48:16.864Z,14.40
2022-11-20T15:50:58.447Z,16.00
2022-11-20T15:53:25.128Z,13.90
2022-11-20T15:55:51.673Z,18.00
2022-11-20T15:58:21.011Z,15.30
2022-11-20T16:00:47.626Z,16.30
2022-11-20T16:03:15.520Z,14.10
2022-11-20T16:05:42.420Z,14.90
2022-11-20T16:08:11.853Z,17.30
2022-11-20T16:10:39.844Z,10.70
2022-11-20T16:13:35.600Z,16.40
2022-11-20T16:16:10.518Z,17.10
2022-11-20T16:18:37.399Z,11.50
2022-11-20T16:21:04.159Z,12.50
2022-11-20T16:23:30.675Z,15.80
2022-11-20T16:25:57.460Z,13.90
2022-11-20T16:28:24.155Z,15.50
2022-11-20T16:30:50.639Z,17.30
2022-11-20T16:33:18.383Z,17.30
2022-11-20T16:35:45.123Z,18.60
2022-11-20T16:38:11.721Z,15.80
2022-11-20T16:40:38.429Z,15.40
2022-11-20T16:43:14.098Z,13.00
2022-11-20T16:45:43.022Z,13.70
2022-11-20T16:48:16.450Z,9.70
2022-11-20T16:50:51.297Z,13.40
2022-11-20T16:53:19.984Z,17.40
2022-11-20T16:55:47.103Z,13.90
2022-11-20T16:58:15.119Z,13.30
2022-11-20T17:00:43.614Z,13.90
2022-11-20T17:03:13.850Z,14.30
2022-11-20T17:05:40.463Z,14.20
2022-11-20T17:08:06.979Z,11.80
2022-11-20T17:10:33.785Z,12.40
2022-11-20T17:13:00.742Z,15.60
2022-11-20T17:15:27.945Z,13.90
2022-11-20T17:17:55.006Z,14.40
2022-11-20T17:20:22.364Z,11.30
2022-11-20T17:22:49.134Z,10.30
2022-11-20T17:25:15.877Z,14.50
2022-11-20T17:27:42.604Z,13.80
2022-11-20T17:30:09.246Z,12.50
2022-11-20T17:32:35.826Z,11.30
2022-11-20T17:35:02.653Z,10.00
2022-11-20T17:37:29.472Z,13.40
2022-11-20T17:39:56.808Z,13.90
2022-11-20T17:42:26.368Z,14.70
2022-11-20T17:44:52.982Z,14.40
2022-11-20T17:47:19.565Z,9.00
2022-11-20T17:49:46.133Z,11.60
2022-11-20T17:52:12.604Z,12.00
2022-11-20T17:54:39.171Z,11.90
2022-11-20T17:57:24.914Z,8.20
2022-11-20T17:59:51.860Z,11.00
2022-11-20T18:02:18.943Z,14.50
2022-11-20T18:04:45.959Z,11.70
2022-11-20T18:07:12.963Z,13.90
2022-11-20T18:09:39.673Z,12.40
2022-11-20T18:12:08.349Z,13.70
2022-11-20T18:14:37.890Z,11.70
2022-11-20T18:17:13.276Z,11.70
2022-11-20T18:19:55.615Z,11.50
2022-11-20T18:22:30.459Z,13.60
2022-11-20T18:24:57.316Z,11.50
2022-11-20T18:27:24.294Z,13.80
2022-11-20T18:29:52.706Z,14.50
2022-11-20T18:32:22.153Z,13.50
2022-11-20T18:34:50.004Z,14.40
2022-11-20T18:37:19.780Z,11.60
2022-11-20T18:39:46.230Z,10.40
2022-11-20T18:42:33.237Z,11.30
2022-11-20T18:45:01.717Z,10.80
2022-11-20T18:47:36.842Z,13.40
2022-11-20T18:50:05.627Z,9.10
2022-11-20T18:52:37.425Z,13.80
2022-11-20T18:55:07.532Z,17.80
2022-11-20T18:57:34.264Z,13.10
2022-11-20T19:00:08.068Z,17.10
2022-11-20T19:02:40.912Z,14.80
2022-11-20T19:05:13.910Z,16.00
2022-11-20T19:07:41.769Z,14.10
2022-11-20T19:10:09.679Z,14.90
2022-11-20T19:12:37.196Z,14.20
2022-11-20T19:15:05.405Z,11.40
2022-11-20T19:17:32.926Z,17.20
2022-11-20T19:19:59.640Z,13.90
2022-11-20T19:22:26.445Z,17.60
2022-11-20T19:24:53.184Z,15.70
2022-11-20T19:27:21.865Z,16.40
2022-11-20T19:29:49.866Z,16.20
2022-11-20T19:32:16.364Z,15.00
2022-11-20T19:34:43.175Z,15.90
2022-11-20T19:37:10.002Z,15.90
2022-11-20T19:39:36.489Z,9.70
2022-11-20T19:42:03.024Z,10.80
2022-11-20T19:44:29.880Z,16.70
2022-11-20T19:46:58.080Z,17.20
2022-11-20T19:49:24.838Z,19.10
2022-11-20T19:51:52.806Z,17.10
2022-11-20T19:54:19.386Z,17.70
2022-11-20T19:56:47.154Z,16.70
2022-11-20T19:59:14.011Z,13.90
2022-11-20T20:01:40.781Z,12.70
2022-11-20T20:04:07.467Z,14.90
2022-11-20T20:06:36.168Z,15.50
2022-11-20T20:09:06.313Z,10.50
2022-11-20T20:11:34.019Z,17.50
2022-11-20T20:14:02.385Z,21.20
2022-11-20T20:16:29.074Z,19.80
2022-11-20T20:18:57.679Z,19.40
2022-11-20T20:21:24.902Z,14.70
2022-11-20T20:23:55.204Z,14.30
2022-11-20T20:26:23.821Z,14.20
2022-11-20T20:28:51.179Z,10.10
2022-11-20T20:31:20.252Z,15.90
2022-11-20T20:33:46.851Z,15.50
2022-11-20T20:36:16.100Z,14.40
2022-11-20T20:38:43.625Z,18.60
2022-11-20T20:41:10.049Z,16.20
2022-11-20T20:43:56.249Z,18.60
2022-11-20T20:46:23.892Z,17.00
2022-11-20T20:48:54.424Z,17.10
2022-11-20T20:51:22.394Z,13.00
2022-11-20T20:53:49.926Z,16.50
2022-11-20T20:56:17.515Z,16.50
2022-11-20T20:58:44.271Z,15.30
2022-11-20T21:01:13.711Z,16.50
2022-11-20T21:03:40.651Z,18.10
2022-11-20T21:06:09.397Z,23.20
2022-11-20T21:08:40.478Z,20.20
2022-11-20T21:11:12.023Z,18.00
2022-11-20T21:13:40.213Z,18.20
2022-11-20T21:16:07.048Z,13.30
2022-11-20T21:18:34.505Z,20.50
2022-11-20T21:21:23.504Z,17.30
2022-11-20T21:23:51.791Z,11.40
2022-11-20T21:26:28.133Z,15.70
2022-11-20T21:28:56.933Z,21.10
2022-11-20T21:31:26.046Z,19.50
2022-11-20T21:33:55.055Z,17.20
2022-11-20T21:36:24.954Z,23.00
2022-11-20T21:38:55.686Z,22.40
2022-11-20T21:41:23.860Z,19.70
2022-11-20T21:44:09.470Z,20.90
2022-11-20T21:46:40.433Z,20.50
2022-11-20T21:49:07.592Z,16.70
2022-11-20T21:51:34.278Z,17.90
2022-11-20T21:54:00.685Z,15.70
2022-11-20T21:56:27.369Z,17.50
2022-11-20T21:58:54.763Z,19.40
2022-11-20T22:01:26.874Z,20.40
2022-11-20T22:03:59.600Z,13.10
2022-11-20T22:06:31.858Z,19.50
2022-11-20T22:08:58.822Z,23.30
2022-11-20T22:11:25.722Z,21.70
2022-11-20T22:14:10.828Z,21.50
2022-11-20T22:16:37.967Z,20.30
2022-11-20T22:19:05.805Z,22.00
2022-11-20T22:21:38.121Z,22.40
2022-11-20T22:24:05.193Z,19.10
2022-11-20T22:26:39.965Z,14.40
2022-11-20T22:29:08.272Z,21.10
2022-11-20T22:31:34.715Z,16.90
2022-11-20T22:34:02.877Z,19.80
2022-11-20T22:36:31.299Z,20.40
2022-11-20T22:38:58.157Z,26.20
2022-11-20T22:41:26.978Z,25.50
2022-11-20T22:43:59.112Z,24.70
2022-11-20T22:46:27.701Z,23.20
2022-11-20T22:49:05.978Z,24.00
2022-11-20T22:51:38.405Z,23.40
2022-11-20T22:54:05.094Z,22.80
2022-11-20T22:56:32.291Z,24.50
2022-11-20T22:58:58.966Z,28.50
2022-11-20T23:01:30.867Z,24.70
2022-11-20T23:04:00.334Z,23.00
2022-11-20T23:06:27.902Z,23.80
2022-11-20T23:08:54.963Z,22.40
2022-11-20T23:11:27.287Z,22.90
2022-11-20T23:14:02.983Z,25.70
2022-11-20T23:16:31.619Z,24.40
2022-11-20T23:19:10.951Z,23.50
2022-11-20T23:21:40.032Z,22.30
2022-11-20T23:24:07.858Z,23.80
2022-11-20T23:26:37.443Z,21.60
2022-11-20T23:29:04.929Z,19.60
2022-11-20T23:31:33.356Z,22.00
2022-11-20T23:34:00.049Z,23.30
2022-11-20T23:36:27.436Z,23.10
2022-11-20T23:38:54.287Z,23.50
2022-11-20T23:41:20.963Z,19.60
2022-11-20T23:43:47.726Z,21.70
2022-11-20T23:46:16.800Z,23.80
2022-11-20T23:48:44.708Z,23.50
2022-11-20T23:51:11.654Z,25.70
2022-11-20T23:53:38.283Z,23.80
2022-11-20T23:56:05.380Z,23.40
2022-11-20T23:58:35.388Z,21.70
